sensor_id;sensor_type;location;lat;lon;timestamp;pressure;altitude;pressure_sealevel;temperature;humidity
83483;BME280;73420;32.678;-85.380;2023-12-14T00:01:38;100359.30;;;19.78;17.11
83483;BME280;73420;32.678;-85.380;2023-12-14T00:04:05;100365.15;;;20.07;16.81
83483;BME280;73420;32.678;-85.380;2023-12-14T00:06:29;100371.57;;;20.09;16.82
83483;BME280;73420;32.678;-85.380;2023-12-14T00:08:55;100370.95;;;19.94;16.76
83483;BME280;73420;32.678;-85.380;2023-12-14T00:11:21;100364.47;;;19.57;16.82
83483;BME280;73420;32.678;-85.380;2023-12-14T00:13:46;100361.24;;;19.55;17.10
83483;BME280;73420;32.678;-85.380;2023-12-14T00:16:12;100360.77;;;19.81;16.98
83483;BME280;73420;32.678;-85.380;2023-12-14T00:18:37;100360.76;;;19.39;16.89
83483;BME280;73420;32.678;-85.380;2023-12-14T00:21:04;100358.76;;;19.70;17.01
83483;BME280;73420;32.678;-85.380;2023-12-14T00:23:28;100357.82;;;19.24;17.37
83483;BME280;73420;32.678;-85.380;2023-12-14T00:25:54;100361.89;;;19.54;17.23
83483;BME280;73420;32.678;-85.380;2023-12-14T00:28:19;100362.13;;;19.60;17.12
83483;BME280;73420;32.678;-85.380;2023-12-14T00:30:44;100364.21;;;19.74;16.78
83483;BME280;73420;32.678;-85.380;2023-12-14T00:33:10;100367.02;;;19.36;16.90
83483;BME280;73420;32.678;-85.380;2023-12-14T00:35:35;100364.99;;;19.23;17.04
83483;BME280;73420;32.678;-85.380;2023-12-14T00:38:04;100362.77;;;19.49;17.17
83483;BME280;73420;32.678;-85.380;2023-12-14T00:40:27;100360.28;;;19.35;17.16
83483;BME280;73420;32.678;-85.380;2023-12-14T00:42:52;100355.73;;;19.14;17.37
83483;BME280;73420;32.678;-85.380;2023-12-14T00:45:17;100358.73;;;19.08;17.23
83483;BME280;73420;32.678;-85.380;2023-12-14T00:47:43;100358.22;;;19.40;16.96
83483;BME280;73420;32.678;-85.380;2023-12-14T00:50:09;100356.39;;;19.46;16.91
83483;BME280;73420;32.678;-85.380;2023-12-14T00:52:34;100352.53;;;19.24;17.25
83483;BME280;73420;32.678;-85.380;2023-12-14T00:54:59;100349.42;;;19.18;17.35
83483;BME280;73420;32.678;-85.380;2023-12-14T00:57:24;100350.16;;;19.46;17.16
83483;BME280;73420;32.678;-85.380;2023-12-14T00:59:50;100354.06;;;19.27;17.19
83483;BME280;73420;32.678;-85.380;2023-12-14T01:02:15;100359.29;;;19.16;17.35
83483;BME280;73420;32.678;-85.380;2023-12-14T01:04:41;100359.89;;;19.12;17.22
83483;BME280;73420;32.678;-85.380;2023-12-14T01:07:06;100357.03;;;19.17;17.42
83483;BME280;73420;32.678;-85.380;2023-12-14T01:09:32;100353.47;;;19.37;17.33
83483;BME280;73420;32.678;-85.380;2023-12-14T01:11:57;100351.99;;;19.55;17.31
83483;BME280;73420;32.678;-85.380;2023-12-14T01:14:23;100355.22;;;19.24;17.11
83483;BME280;73420;32.678;-85.380;2023-12-14T01:16:49;100357.23;;;19.27;17.25
83483;BME280;73420;32.678;-85.380;2023-12-14T01:19:14;100355.91;;;19.04;17.38
83483;BME280;73420;32.678;-85.380;2023-12-14T01:21:40;100354.33;;;18.96;17.75
83483;BME280;73420;32.678;-85.380;2023-12-14T01:24:06;100354.97;;;18.72;18.10
83483;BME280;73420;32.678;-85.380;2023-12-14T01:26:31;100354.92;;;18.96;17.83
83483;BME280;73420;32.678;-85.380;2023-12-14T01:28:57;100352.13;;;19.08;18.02
83483;BME280;73420;32.678;-85.380;2023-12-14T01:31:22;100351.64;;;18.49;17.95
83483;BME280;73420;32.678;-85.380;2023-12-14T01:33:47;100347.44;;;18.98;18.14
83483;BME280;73420;32.678;-85.380;2023-12-14T01:36:20;100344.22;;;18.76;17.95
83483;BME280;73420;32.678;-85.380;2023-12-14T01:38:39;100339.46;;;18.88;17.85
83483;BME280;73420;32.678;-85.380;2023-12-14T01:41:05;100329.43;;;18.69;18.12
83483;BME280;73420;32.678;-85.380;2023-12-14T01:43:29;100324.09;;;18.76;18.09
83483;BME280;73420;32.678;-85.380;2023-12-14T01:45:55;100322.08;;;18.80;18.26
83483;BME280;73420;32.678;-85.380;2023-12-14T01:48:20;100324.74;;;18.67;18.17
83483;BME280;73420;32.678;-85.380;2023-12-14T01:50:46;100324.11;;;18.44;18.24
83483;BME280;73420;32.678;-85.380;2023-12-14T01:53:12;100322.54;;;18.17;18.60
83483;BME280;73420;32.678;-85.380;2023-12-14T01:55:37;100324.75;;;18.57;18.75
83483;BME280;73420;32.678;-85.380;2023-12-14T01:58:03;100327.07;;;18.61;18.43
83483;BME280;73420;32.678;-85.380;2023-12-14T02:00:35;100331.46;;;18.50;18.44
83483;BME280;73420;32.678;-85.380;2023-12-14T02:02:54;100332.43;;;18.23;18.53
83483;BME280;73420;32.678;-85.380;2023-12-14T02:05:21;100332.68;;;18.32;18.39
83483;BME280;73420;32.678;-85.380;2023-12-14T02:07:45;100334.53;;;18.36;19.02
83483;BME280;73420;32.678;-85.380;2023-12-14T02:10:11;100334.05;;;18.31;18.61
83483;BME280;73420;32.678;-85.380;2023-12-14T02:12:36;100330.73;;;18.50;18.71
83483;BME280;73420;32.678;-85.380;2023-12-14T02:15:01;100328.76;;;18.56;18.51
83483;BME280;73420;32.678;-85.380;2023-12-14T02:17:27;100329.71;;;18.47;18.75
83483;BME280;73420;32.678;-85.380;2023-12-14T02:19:52;100329.67;;;18.37;18.61
83483;BME280;73420;32.678;-85.380;2023-12-14T02:22:18;100326.31;;;18.45;18.64
83483;BME280;73420;32.678;-85.380;2023-12-14T02:24:43;100330.26;;;18.39;18.79
83483;BME280;73420;32.678;-85.380;2023-12-14T02:27:08;100332.50;;;18.10;18.88
83483;BME280;73420;32.678;-85.380;2023-12-14T02:29:34;100333.62;;;18.16;19.08
83483;BME280;73420;32.678;-85.380;2023-12-14T02:32:00;100333.54;;;18.22;18.79
83483;BME280;73420;32.678;-85.380;2023-12-14T02:34:25;100330.31;;;18.07;19.01
83483;BME280;73420;32.678;-85.380;2023-12-14T02:36:51;100328.96;;;18.10;18.98
83483;BME280;73420;32.678;-85.380;2023-12-14T02:39:16;100329.36;;;17.85;19.30
83483;BME280;73420;32.678;-85.380;2023-12-14T02:41:42;100330.36;;;17.63;19.40
83483;BME280;73420;32.678;-85.380;2023-12-14T02:44:07;100331.92;;;17.82;19.46
83483;BME280;73420;32.678;-85.380;2023-12-14T02:46:33;100335.94;;;17.98;19.34
83483;BME280;73420;32.678;-85.380;2023-12-14T02:48:58;100337.98;;;17.65;19.45
83483;BME280;73420;32.678;-85.380;2023-12-14T02:51:24;100345.65;;;17.50;19.59
83483;BME280;73420;32.678;-85.380;2023-12-14T02:53:49;100347.75;;;17.74;19.70
83483;BME280;73420;32.678;-85.380;2023-12-14T02:56:14;100350.59;;;17.58;19.62
83483;BME280;73420;32.678;-85.380;2023-12-14T02:58:40;100351.25;;;17.57;19.55
83483;BME280;73420;32.678;-85.380;2023-12-14T03:01:05;100352.40;;;17.54;19.92
83483;BME280;73420;32.678;-85.380;2023-12-14T03:03:31;100353.11;;;17.36;20.08
83483;BME280;73420;32.678;-85.380;2023-12-14T03:05:57;100355.92;;;17.50;19.82
83483;BME280;73420;32.678;-85.380;2023-12-14T03:08:22;100355.78;;;17.40;20.00
83483;BME280;73420;32.678;-85.380;2023-12-14T03:10:48;100356.81;;;17.50;19.71
83483;BME280;73420;32.678;-85.380;2023-12-14T03:13:13;100355.69;;;17.29;19.95
83483;BME280;73420;32.678;-85.380;2023-12-14T03:15:39;100364.42;;;17.13;20.38
83483;BME280;73420;32.678;-85.380;2023-12-14T03:18:05;100371.64;;;17.22;19.97
83483;BME280;73420;32.678;-85.380;2023-12-14T03:20:30;100372.78;;;17.60;19.77
83483;BME280;73420;32.678;-85.380;2023-12-14T03:22:56;100372.82;;;17.35;19.92
83483;BME280;73420;32.678;-85.380;2023-12-14T03:25:21;100370.97;;;17.60;19.92
83483;BME280;73420;32.678;-85.380;2023-12-14T03:27:47;100371.59;;;17.27;20.03
83483;BME280;73420;32.678;-85.380;2023-12-14T03:30:12;100368.77;;;17.57;20.07
83483;BME280;73420;32.678;-85.380;2023-12-14T03:32:37;100370.94;;;17.33;20.09
83483;BME280;73420;32.678;-85.380;2023-12-14T03:35:03;100370.35;;;17.16;20.16
83483;BME280;73420;32.678;-85.380;2023-12-14T03:37:28;100366.89;;;17.36;20.16
83483;BME280;73420;32.678;-85.380;2023-12-14T03:39:54;100363.48;;;17.43;20.05
83483;BME280;73420;32.678;-85.380;2023-12-14T03:42:20;100364.19;;;17.55;20.08
83483;BME280;73420;32.678;-85.380;2023-12-14T03:44:45;100364.32;;;17.51;20.20
83483;BME280;73420;32.678;-85.380;2023-12-14T03:47:11;100365.35;;;17.08;20.52
83483;BME280;73420;32.678;-85.380;2023-12-14T03:49:37;100371.21;;;17.10;20.45
83483;BME280;73420;32.678;-85.380;2023-12-14T03:52:02;100380.27;;;17.18;20.54
83483;BME280;73420;32.678;-85.380;2023-12-14T03:54:28;100388.84;;;17.20;20.39
83483;BME280;73420;32.678;-85.380;2023-12-14T03:56:54;100392.40;;;17.02;20.53
83483;BME280;73420;32.678;-85.380;2023-12-14T03:59:19;100393.20;;;17.23;20.43
83483;BME280;73420;32.678;-85.380;2023-12-14T04:01:44;100392.30;;;16.98;20.60
83483;BME280;73420;32.678;-85.380;2023-12-14T04:04:10;100393.02;;;16.97;20.74
83483;BME280;73420;32.678;-85.380;2023-12-14T04:06:36;100395.42;;;17.05;20.73
83483;BME280;73420;32.678;-85.380;2023-12-14T04:09:01;100399.72;;;17.30;20.57
83483;BME280;73420;32.678;-85.380;2023-12-14T04:11:27;100400.51;;;17.04;20.55
83483;BME280;73420;32.678;-85.380;2023-12-14T04:13:52;100405.54;;;16.95;20.55
83483;BME280;73420;32.678;-85.380;2023-12-14T04:16:20;100411.07;;;16.73;20.80
83483;BME280;73420;32.678;-85.380;2023-12-14T04:18:43;100416.35;;;16.91;20.94
83483;BME280;73420;32.678;-85.380;2023-12-14T04:21:09;100417.28;;;16.85;20.75
83483;BME280;73420;32.678;-85.380;2023-12-14T04:23:34;100413.14;;;17.16;20.72
83483;BME280;73420;32.678;-85.380;2023-12-14T04:26:00;100407.23;;;16.83;20.69
83483;BME280;73420;32.678;-85.380;2023-12-14T04:28:25;100404.24;;;16.69;20.93
83483;BME280;73420;32.678;-85.380;2023-12-14T04:30:51;100404.88;;;16.86;20.75
83483;BME280;73420;32.678;-85.380;2023-12-14T04:33:17;100406.17;;;16.85;20.74
83483;BME280;73420;32.678;-85.380;2023-12-14T04:35:42;100410.79;;;16.85;20.92
83483;BME280;73420;32.678;-85.380;2023-12-14T04:38:07;100416.17;;;16.90;21.22
83483;BME280;73420;32.678;-85.380;2023-12-14T04:40:33;100412.48;;;16.35;21.58
83483;BME280;73420;32.678;-85.380;2023-12-14T04:42:58;100410.49;;;16.57;21.83
83483;BME280;73420;32.678;-85.380;2023-12-14T04:45:24;100409.79;;;16.57;21.72
83483;BME280;73420;32.678;-85.380;2023-12-14T04:47:49;100409.22;;;16.59;21.26
83483;BME280;73420;32.678;-85.380;2023-12-14T04:50:14;100411.61;;;16.90;21.14
83483;BME280;73420;32.678;-85.380;2023-12-14T04:52:41;100409.43;;;16.80;21.34
83483;BME280;73420;32.678;-85.380;2023-12-14T04:55:07;100409.73;;;17.01;21.89
83483;BME280;73420;32.678;-85.380;2023-12-14T04:57:30;100408.47;;;16.65;21.53
83483;BME280;73420;32.678;-85.380;2023-12-14T04:59:56;100403.79;;;16.58;21.80
83483;BME280;73420;32.678;-85.380;2023-12-14T05:02:21;100406.23;;;16.12;21.93
83483;BME280;73420;32.678;-85.380;2023-12-14T05:04:46;100408.56;;;16.61;21.81
83483;BME280;73420;32.678;-85.380;2023-12-14T05:07:12;100413.54;;;16.41;21.64
83483;BME280;73420;32.678;-85.380;2023-12-14T05:09:37;100409.10;;;16.52;21.59
83483;BME280;73420;32.678;-85.380;2023-12-14T05:12:03;100406.50;;;16.22;21.56
83483;BME280;73420;32.678;-85.380;2023-12-14T05:14:28;100409.38;;;16.53;21.51
83483;BME280;73420;32.678;-85.380;2023-12-14T05:16:54;100407.99;;;16.34;21.89
83483;BME280;73420;32.678;-85.380;2023-12-14T05:19:20;100408.11;;;16.52;21.61
83483;BME280;73420;32.678;-85.380;2023-12-14T05:21:45;100404.35;;;16.09;21.81
83483;BME280;73420;32.678;-85.380;2023-12-14T05:24:10;100407.91;;;15.89;21.72
83483;BME280;73420;32.678;-85.380;2023-12-14T05:26:36;100404.63;;;16.28;21.63
83483;BME280;73420;32.678;-85.380;2023-12-14T05:29:01;100405.10;;;16.45;21.71
83483;BME280;73420;32.678;-85.380;2023-12-14T05:31:27;100403.90;;;16.25;21.49
83483;BME280;73420;32.678;-85.380;2023-12-14T05:33:52;100401.83;;;16.32;21.49
83483;BME280;73420;32.678;-85.380;2023-12-14T05:36:18;100398.53;;;16.66;21.41
83483;BME280;73420;32.678;-85.380;2023-12-14T05:38:43;100398.10;;;16.41;21.60
83483;BME280;73420;32.678;-85.380;2023-12-14T05:41:09;100400.24;;;16.10;21.58
83483;BME280;73420;32.678;-85.380;2023-12-14T05:43:35;100401.47;;;16.24;21.35
83483;BME280;73420;32.678;-85.380;2023-12-14T05:46:00;100403.99;;;16.18;21.50
83483;BME280;73420;32.678;-85.380;2023-12-14T05:48:25;100405.55;;;15.97;21.39
83483;BME280;73420;32.678;-85.380;2023-12-14T05:50:51;100403.47;;;16.28;21.36
83483;BME280;73420;32.678;-85.380;2023-12-14T05:53:16;100399.77;;;15.97;21.61
83483;BME280;73420;32.678;-85.380;2023-12-14T05:55:42;100396.75;;;16.22;21.65
83483;BME280;73420;32.678;-85.380;2023-12-14T05:58:06;100396.88;;;16.15;21.70
83483;BME280;73420;32.678;-85.380;2023-12-14T06:00:32;100398.45;;;15.99;21.91
83483;BME280;73420;32.678;-85.380;2023-12-14T06:02:57;100400.13;;;16.07;21.67
83483;BME280;73420;32.678;-85.380;2023-12-14T06:05:22;100400.46;;;16.14;21.81
83483;BME280;73420;32.678;-85.380;2023-12-14T06:07:48;100401.10;;;15.86;21.75
83483;BME280;73420;32.678;-85.380;2023-12-14T06:10:13;100400.68;;;15.78;22.02
83483;BME280;73420;32.678;-85.380;2023-12-14T06:12:39;100401.53;;;15.86;21.85
83483;BME280;73420;32.678;-85.380;2023-12-14T06:15:06;100401.18;;;15.83;22.09
83483;BME280;73420;32.678;-85.380;2023-12-14T06:17:30;100398.97;;;15.58;21.99
83483;BME280;73420;32.678;-85.380;2023-12-14T06:19:55;100395.25;;;15.61;21.97
83483;BME280;73420;32.678;-85.380;2023-12-14T06:22:20;100390.64;;;15.92;21.87
83483;BME280;73420;32.678;-85.380;2023-12-14T06:24:46;100388.29;;;15.94;21.75
83483;BME280;73420;32.678;-85.380;2023-12-14T06:27:11;100385.07;;;16.04;22.01
83483;BME280;73420;32.678;-85.380;2023-12-14T06:29:36;100383.21;;;15.77;22.05
83483;BME280;73420;32.678;-85.380;2023-12-14T06:32:02;100384.70;;;15.59;22.18
83483;BME280;73420;32.678;-85.380;2023-12-14T06:34:26;100387.62;;;15.93;22.11
83483;BME280;73420;32.678;-85.380;2023-12-14T06:36:52;100391.26;;;15.95;21.72
83483;BME280;73420;32.678;-85.380;2023-12-14T06:39:18;100396.41;;;16.05;22.05
83483;BME280;73420;32.678;-85.380;2023-12-14T06:41:43;100395.14;;;15.85;21.86
83483;BME280;73420;32.678;-85.380;2023-12-14T06:44:09;100394.15;;;16.29;21.88
83483;BME280;73420;32.678;-85.380;2023-12-14T06:46:34;100396.81;;;15.91;21.82
83483;BME280;73420;32.678;-85.380;2023-12-14T06:49:00;100401.22;;;16.03;21.54
83483;BME280;73420;32.678;-85.380;2023-12-14T06:51:25;100400.66;;;15.95;21.72
83483;BME280;73420;32.678;-85.380;2023-12-14T06:53:50;100403.33;;;15.79;21.76
83483;BME280;73420;32.678;-85.380;2023-12-14T06:56:16;100405.04;;;15.61;21.90
83483;BME280;73420;32.678;-85.380;2023-12-14T06:58:43;100395.93;;;15.68;22.00
83483;BME280;73420;32.678;-85.380;2023-12-14T07:01:06;100392.74;;;16.05;21.95
83483;BME280;73420;32.678;-85.380;2023-12-14T07:03:31;100389.89;;;15.69;21.96
83483;BME280;73420;32.678;-85.380;2023-12-14T07:05:57;100389.09;;;15.92;22.18
83483;BME280;73420;32.678;-85.380;2023-12-14T07:08:22;100387.16;;;15.40;22.11
83483;BME280;73420;32.678;-85.380;2023-12-14T07:10:47;100388.15;;;15.84;22.11
83483;BME280;73420;32.678;-85.380;2023-12-14T07:13:13;100390.73;;;15.83;21.83
83483;BME280;73420;32.678;-85.380;2023-12-14T07:15:38;100391.22;;;15.53;21.89
83483;BME280;73420;32.678;-85.380;2023-12-14T07:18:03;100394.17;;;15.50;21.76
83483;BME280;73420;32.678;-85.380;2023-12-14T07:20:28;100392.95;;;15.35;21.84
83483;BME280;73420;32.678;-85.380;2023-12-14T07:22:54;100394.16;;;15.62;21.85
83483;BME280;73420;32.678;-85.380;2023-12-14T07:25:19;100392.71;;;15.43;21.84
83483;BME280;73420;32.678;-85.380;2023-12-14T07:27:45;100392.99;;;15.46;21.93
83483;BME280;73420;32.678;-85.380;2023-12-14T07:30:11;100388.44;;;15.58;22.07
83483;BME280;73420;32.678;-85.380;2023-12-14T07:32:35;100389.60;;;15.70;21.88
83483;BME280;73420;32.678;-85.380;2023-12-14T07:35:00;100388.45;;;15.29;21.89
83483;BME280;73420;32.678;-85.380;2023-12-14T07:37:26;100386.58;;;15.72;21.92
83483;BME280;73420;32.678;-85.380;2023-12-14T07:39:51;100381.27;;;15.76;21.89
83483;BME280;73420;32.678;-85.380;2023-12-14T07:42:17;100381.19;;;15.30;21.92
83483;BME280;73420;32.678;-85.380;2023-12-14T07:44:43;100383.62;;;15.22;21.74
83483;BME280;73420;32.678;-85.380;2023-12-14T07:47:08;100383.43;;;15.18;21.82
83483;BME280;73420;32.678;-85.380;2023-12-14T07:49:33;100382.04;;;15.68;21.85
83483;BME280;73420;32.678;-85.380;2023-12-14T07:51:59;100382.31;;;15.60;21.96
83483;BME280;73420;32.678;-85.380;2023-12-14T07:54:24;100383.20;;;15.53;21.69
83483;BME280;73420;32.678;-85.380;2023-12-14T07:56:50;100384.48;;;15.41;21.89
83483;BME280;73420;32.678;-85.380;2023-12-14T07:59:15;100384.28;;;15.57;22.03
83483;BME280;73420;32.678;-85.380;2023-12-14T08:01:41;100382.05;;;15.52;21.86
83483;BME280;73420;32.678;-85.380;2023-12-14T08:04:06;100384.59;;;15.55;21.80
83483;BME280;73420;32.678;-85.380;2023-12-14T08:06:31;100384.55;;;15.40;22.10
83483;BME280;73420;32.678;-85.380;2023-12-14T08:08:57;100387.15;;;15.43;22.03
83483;BME280;73420;32.678;-85.380;2023-12-14T08:11:22;100384.17;;;15.32;22.04
83483;BME280;73420;32.678;-85.380;2023-12-14T08:13:48;100388.23;;;15.45;22.03
83483;BME280;73420;32.678;-85.380;2023-12-14T08:16:14;100387.46;;;15.15;21.83
83483;BME280;73420;32.678;-85.380;2023-12-14T08:18:39;100389.27;;;15.23;22.05
83483;BME280;73420;32.678;-85.380;2023-12-14T08:21:05;100386.15;;;15.10;22.14
83483;BME280;73420;32.678;-85.380;2023-12-14T08:23:30;100390.49;;;15.32;21.98
83483;BME280;73420;32.678;-85.380;2023-12-14T08:25:56;100391.19;;;14.78;22.07
83483;BME280;73420;32.678;-85.380;2023-12-14T08:28:21;100392.20;;;15.18;22.07
83483;BME280;73420;32.678;-85.380;2023-12-14T08:30:47;100393.20;;;15.25;21.83
83483;BME280;73420;32.678;-85.380;2023-12-14T08:33:12;100394.80;;;15.15;22.11
83483;BME280;73420;32.678;-85.380;2023-12-14T08:35:38;100399.42;;;15.14;21.96
83483;BME280;73420;32.678;-85.380;2023-12-14T08:38:03;100403.42;;;15.02;21.99
83483;BME280;73420;32.678;-85.380;2023-12-14T08:40:29;100405.63;;;14.88;22.18
83483;BME280;73420;32.678;-85.380;2023-12-14T08:42:54;100404.91;;;15.06;22.29
83483;BME280;73420;32.678;-85.380;2023-12-14T08:45:20;100402.48;;;14.87;22.35
83483;BME280;73420;32.678;-85.380;2023-12-14T08:47:45;100404.60;;;15.16;21.98
83483;BME280;73420;32.678;-85.380;2023-12-14T08:50:12;100403.89;;;15.13;22.08
83483;BME280;73420;32.678;-85.380;2023-12-14T08:52:35;100394.94;;;14.96;21.96
83483;BME280;73420;32.678;-85.380;2023-12-14T08:55:00;100393.53;;;15.17;22.07
83483;BME280;73420;32.678;-85.380;2023-12-14T08:57:26;100392.44;;;14.65;22.49
83483;BME280;73420;32.678;-85.380;2023-12-14T08:59:50;100395.46;;;14.88;22.32
83483;BME280;73420;32.678;-85.380;2023-12-14T09:02:16;100392.66;;;14.92;22.36
83483;BME280;73420;32.678;-85.380;2023-12-14T09:04:41;100393.88;;;14.63;22.19
83483;BME280;73420;32.678;-85.380;2023-12-14T09:07:06;100387.68;;;14.96;22.27
83483;BME280;73420;32.678;-85.380;2023-12-14T09:09:32;100389.15;;;14.91;22.24
83483;BME280;73420;32.678;-85.380;2023-12-14T09:11:57;100391.80;;;15.07;22.16
83483;BME280;73420;32.678;-85.380;2023-12-14T09:14:23;100394.34;;;14.90;22.17
83483;BME280;73420;32.678;-85.380;2023-12-14T09:16:48;100391.35;;;14.98;21.99
83483;BME280;73420;32.678;-85.380;2023-12-14T09:19:13;100394.04;;;14.85;22.19
83483;BME280;73420;32.678;-85.380;2023-12-14T09:21:39;100392.63;;;14.63;22.32
83483;BME280;73420;32.678;-85.380;2023-12-14T09:24:05;100392.03;;;14.80;22.19
83483;BME280;73420;32.678;-85.380;2023-12-14T09:26:30;100390.93;;;14.70;22.08
83483;BME280;73420;32.678;-85.380;2023-12-14T09:28:55;100391.40;;;14.90;22.09
83483;BME280;73420;32.678;-85.380;2023-12-14T09:31:20;100391.82;;;14.66;22.03
83483;BME280;73420;32.678;-85.380;2023-12-14T09:33:46;100387.92;;;14.93;22.12
83483;BME280;73420;32.678;-85.380;2023-12-14T09:36:11;100386.84;;;14.94;22.02
83483;BME280;73420;32.678;-85.380;2023-12-14T09:38:37;100385.96;;;14.76;22.37
83483;BME280;73420;32.678;-85.380;2023-12-14T09:41:03;100393.37;;;14.62;22.08
83483;BME280;73420;32.678;-85.380;2023-12-14T09:43:28;100395.39;;;14.62;22.35
83483;BME280;73420;32.678;-85.380;2023-12-14T09:45:55;100401.73;;;14.69;22.34
83483;BME280;73420;32.678;-85.380;2023-12-14T09:48:19;100403.44;;;14.87;22.23
83483;BME280;73420;32.678;-85.380;2023-12-14T09:50:44;100402.71;;;14.80;22.49
83483;BME280;73420;32.678;-85.380;2023-12-14T09:53:09;100401.51;;;15.02;22.46
83483;BME280;73420;32.678;-85.380;2023-12-14T09:55:35;100399.35;;;14.13;22.59
83483;BME280;73420;32.678;-85.380;2023-12-14T09:58:01;100399.42;;;14.37;22.63
83483;BME280;73420;32.678;-85.380;2023-12-14T10:00:33;100398.19;;;14.31;22.63
83483;BME280;73420;32.678;-85.380;2023-12-14T10:02:52;100398.78;;;14.24;22.61
83483;BME280;73420;32.678;-85.380;2023-12-14T10:05:21;100395.72;;;14.78;22.59
83483;BME280;73420;32.678;-85.380;2023-12-14T10:07:43;100399.25;;;14.63;22.61
83483;BME280;73420;32.678;-85.380;2023-12-14T10:10:10;100404.47;;;14.70;22.64
83483;BME280;73420;32.678;-85.380;2023-12-14T10:15:01;100410.35;;;14.44;23.03
83483;BME280;73420;32.678;-85.380;2023-12-14T10:17:25;100414.27;;;14.53;22.86
83483;BME280;73420;32.678;-85.380;2023-12-14T10:19:50;100415.42;;;14.18;22.93
83483;BME280;73420;32.678;-85.380;2023-12-14T10:22:17;100416.76;;;14.32;22.91
83483;BME280;73420;32.678;-85.380;2023-12-14T10:24:43;100419.10;;;14.56;22.70
83483;BME280;73420;32.678;-85.380;2023-12-14T10:27:07;100417.82;;;14.37;22.75
83483;BME280;73420;32.678;-85.380;2023-12-14T10:29:33;100415.26;;;14.60;22.67
83483;BME280;73420;32.678;-85.380;2023-12-14T10:31:57;100414.27;;;14.35;22.85
83483;BME280;73420;32.678;-85.380;2023-12-14T10:34:23;100411.88;;;14.29;23.08
83483;BME280;73420;32.678;-85.380;2023-12-14T10:36:48;100414.42;;;14.09;23.22
83483;BME280;73420;32.678;-85.380;2023-12-14T10:39:15;100420.93;;;13.93;22.93
83483;BME280;73420;32.678;-85.380;2023-12-14T10:41:40;100424.63;;;14.46;22.76
83483;BME280;73420;32.678;-85.380;2023-12-14T10:44:05;100428.34;;;14.15;22.98
83483;BME280;73420;32.678;-85.380;2023-12-14T10:46:30;100434.59;;;14.13;23.27
83483;BME280;73420;32.678;-85.380;2023-12-14T10:48:55;100437.53;;;13.84;22.88
83483;BME280;73420;32.678;-85.380;2023-12-14T10:51:22;100440.41;;;13.91;22.92
83483;BME280;73420;32.678;-85.380;2023-12-14T10:53:47;100443.75;;;14.40;22.95
83483;BME280;73420;32.678;-85.380;2023-12-14T10:56:12;100445.29;;;14.21;22.92
83483;BME280;73420;32.678;-85.380;2023-12-14T10:58:47;100442.72;;;14.13;22.96
83483;BME280;73420;32.678;-85.380;2023-12-14T11:01:03;100446.94;;;14.27;23.04
83483;BME280;73420;32.678;-85.380;2023-12-14T11:03:33;100445.91;;;13.90;22.81
83483;BME280;73420;32.678;-85.380;2023-12-14T11:05:54;100448.87;;;14.36;22.95
83483;BME280;73420;32.678;-85.380;2023-12-14T11:08:20;100455.73;;;13.93;23.01
83483;BME280;73420;32.678;-85.380;2023-12-14T11:10:52;100457.95;;;13.53;23.11
83483;BME280;73420;32.678;-85.380;2023-12-14T11:13:13;100458.88;;;13.84;23.31
83483;BME280;73420;32.678;-85.380;2023-12-14T11:15:37;100460.63;;;13.62;23.35
83483;BME280;73420;32.678;-85.380;2023-12-14T11:18:20;100463.10;;;13.84;23.26
83483;BME280;73420;32.678;-85.380;2023-12-14T11:20:27;100467.63;;;13.74;23.19
83483;BME280;73420;32.678;-85.380;2023-12-14T11:23:07;100468.52;;;13.70;23.19
83483;BME280;73420;32.678;-85.380;2023-12-14T11:25:18;100471.02;;;13.75;23.06
83483;BME280;73420;32.678;-85.380;2023-12-14T11:27:44;100473.42;;;13.97;23.08
83483;BME280;73420;32.678;-85.380;2023-12-14T11:30:11;100480.20;;;13.94;22.80
83483;BME280;73420;32.678;-85.380;2023-12-14T11:32:35;100480.87;;;14.12;22.67
83483;BME280;73420;32.678;-85.380;2023-12-14T11:35:00;100480.23;;;14.11;22.71
83483;BME280;73420;32.678;-85.380;2023-12-14T11:37:25;100484.16;;;14.00;23.07
83483;BME280;73420;32.678;-85.380;2023-12-14T11:39:51;100488.67;;;13.74;23.00
83483;BME280;73420;32.678;-85.380;2023-12-14T11:42:18;100495.80;;;13.96;23.02
83483;BME280;73420;32.678;-85.380;2023-12-14T11:44:41;100497.08;;;13.85;23.07
83483;BME280;73420;32.678;-85.380;2023-12-14T11:47:07;100500.62;;;13.82;22.91
83483;BME280;73420;32.678;-85.380;2023-12-14T11:49:32;100507.57;;;13.72;23.13
83483;BME280;73420;32.678;-85.380;2023-12-14T11:51:57;100509.79;;;13.82;22.89
83483;BME280;73420;32.678;-85.380;2023-12-14T11:54:23;100510.88;;;13.76;23.06
83483;BME280;73420;32.678;-85.380;2023-12-14T11:56:49;100509.26;;;13.91;22.84
83483;BME280;73420;32.678;-85.380;2023-12-14T11:59:15;100511.51;;;13.54;23.08
83483;BME280;73420;32.678;-85.380;2023-12-14T12:01:39;100511.36;;;13.85;22.94
83483;BME280;73420;32.678;-85.380;2023-12-14T12:04:09;100515.35;;;13.78;23.26
83483;BME280;73420;32.678;-85.380;2023-12-14T12:06:29;100514.48;;;13.81;23.06
83483;BME280;73420;32.678;-85.380;2023-12-14T12:08:55;100516.45;;;13.83;23.02
83483;BME280;73420;32.678;-85.380;2023-12-14T12:11:22;100519.12;;;13.79;23.19
83483;BME280;73420;32.678;-85.380;2023-12-14T12:13:51;100520.55;;;13.87;23.19
83483;BME280;73420;32.678;-85.380;2023-12-14T12:16:11;100520.20;;;13.79;23.13
83483;BME280;73420;32.678;-85.380;2023-12-14T12:18:36;100524.82;;;13.73;23.06
83483;BME280;73420;32.678;-85.380;2023-12-14T12:21:02;100526.50;;;13.75;23.20
83483;BME280;73420;32.678;-85.380;2023-12-14T12:23:28;100528.68;;;13.65;22.99